PWSweather.com
Personal Weather Stations
Station Observations
AF1HS
North Haven, CT 06473

North Haven, CT 06473

Lat: 41.3733, Lon: -72.8413

Elevation: 85.3

Station Type: Oregon Scientific WMR968

http://www.af1hs.com/wx/index.php

Latest ConditionsUpdated 8:40:02 PM EST Wednesday, Jan 16, 2019
Currently Today's Max Today's Min Today's Average
Temperature 31.2°F-0.4°C 37.1°F2.8°C 14.5°F-9.7°C 25.9°F-3.4°C
Dew Point 13.8°F-10.1°C 18.7°F-7.4°C 3.7°F-15.7°C 11.3°F-11.5°C
Winds Calm Calm Calm -Calm - - Calm Calm
Wind Gusts -- -- - -
Humidity 48% 63% 46% 54%
Pressure 31.01 in1050.1 mb 31.01 in1050.1 mb 30.98 in1049.1 mb -
Hour Temp Dew Point Humidity Winds Wind Gusts Pressure Precip Precip Rate Daily Precip Total
08:40 PM 31.2°F-0.4°C 13.8°F-10.1°C 48% Calm Calm -- 31.01 in1050.1 mb - 0.00 in0.0 mm 0.00 in0.0 mm
08:30 PM 31.9°F-0.1°C 14.4°F-9.8°C 48% Calm Calm -- 31.01 in1050.1 mb - 0.00 in0.0 mm 0.00 in0.0 mm
08:20 PM 32.4°F0.2°C 14.8°F-9.6°C 48% Calm Calm -- 31.01 in1050.1 mb - 0.00 in0.0 mm 0.00 in0.0 mm
08:10 PM 32.5°F0.3°C 15.0°F-9.4°C 48% Calm Calm -- 31.01 in1050.1 mb - 0.00 in0.0 mm 0.00 in0.0 mm
08:00 PM 32.9°F0.5°C 15.3°F-9.3°C 48% Calm Calm -- 31.01 in1050.1 mb - 0.00 in0.0 mm 0.00 in0.0 mm
07:50 PM 32.9°F0.5°C 15.3°F-9.3°C 48% Calm Calm -- 31.01 in1050.1 mb - 0.00 in0.0 mm 0.00 in0.0 mm
07:40 PM 32.9°F0.5°C 15.3°F-9.3°C 48% Calm Calm -- 31.01 in1050.1 mb - 0.00 in0.0 mm 0.00 in0.0 mm
07:30 PM 32.9°F0.5°C 15.3°F-9.3°C 48% Calm Calm -- 31.01 in1050.1 mb - 0.00 in0.0 mm 0.00 in0.0 mm
07:20 PM 32.9°F0.5°C 15.3°F-9.3°C 48% Calm Calm -- 31.01 in1050.1 mb - 0.00 in0.0 mm 0.00 in0.0 mm
07:10 PM 33.1°F0.6°C 15.5°F-9.2°C 48% Calm Calm -- 31.01 in1050.1 mb - 0.00 in0.0 mm 0.00 in0.0 mm
07:00 PM 32.9°F0.5°C 15.3°F-9.3°C 48% Calm Calm -- 31.01 in1050.1 mb - 0.00 in0.0 mm 0.00 in0.0 mm
06:50 PM 33.1°F0.6°C 15.5°F-9.2°C 48% Calm Calm -- 31.01 in1050.1 mb - 0.00 in0.0 mm 0.00 in0.0 mm
06:40 PM 33.1°F0.6°C 15.5°F-9.2°C 48% Calm Calm -- 31.01 in1050.1 mb - 0.00 in0.0 mm 0.00 in0.0 mm
06:30 PM 32.9°F0.5°C 15.3°F-9.3°C 48% Calm Calm -- 31.01 in1050.1 mb - 0.00 in0.0 mm 0.00 in0.0 mm
06:20 PM 32.9°F0.5°C 15.3°F-9.3°C 48% Calm Calm -- 31.01 in1050.1 mb - 0.00 in0.0 mm 0.00 in0.0 mm
06:10 PM 32.8°F0.4°C 15.2°F-9.3°C 48% Calm Calm -- 31.01 in1050.1 mb - 0.00 in0.0 mm 0.00 in0.0 mm
06:00 PM 32.7°F0.4°C 15.2°F-9.3°C 48% Calm Calm -- 31.01 in1050.1 mb - 0.00 in0.0 mm 0.00 in0.0 mm
05:50 PM 32.7°F0.4°C 15.2°F-9.3°C 48% Calm Calm -- 31.01 in1050.1 mb - 0.00 in0.0 mm 0.00 in0.0 mm
05:40 PM 32.9°F0.5°C 15.3°F-9.3°C 48% Calm Calm -- 31.01 in1050.1 mb - 0.00 in0.0 mm 0.00 in0.0 mm
05:30 PM 32.6°F0.3°C 15.0°F-9.4°C 48% Calm Calm -- 31.01 in1050.1 mb - 0.00 in0.0 mm 0.00 in0.0 mm
05:20 PM 32.2°F0.1°C 14.7°F-9.6°C 48% Calm Calm -- 31.01 in1050.1 mb - 0.00 in0.0 mm 0.00 in0.0 mm
05:10 PM 31.6°F-0.2°C 14.2°F-9.9°C 48% Calm Calm -- 31.01 in1050.1 mb - 0.00 in0.0 mm 0.00 in0.0 mm
05:00 PM 31.5°F-0.3°C 14.0°F-10.0°C 48% Calm Calm -- 31.01 in1050.1 mb - 0.00 in0.0 mm 0.00 in0.0 mm
04:50 PM 32.2°F0.1°C 14.7°F-9.6°C 48% Calm Calm -- 31.01 in1050.1 mb - 0.00 in0.0 mm 0.00 in0.0 mm
04:40 PM 32.7°F0.4°C 15.2°F-9.3°C 48% Calm Calm -- 31.01 in1050.1 mb - 0.00 in0.0 mm 0.00 in0.0 mm
04:30 PM 33.1°F0.6°C 15.5°F-9.2°C 48% Calm Calm -- 31.01 in1050.1 mb - 0.00 in0.0 mm 0.00 in0.0 mm
04:20 PM 33.6°F0.9°C 16.0°F-8.9°C 48% Calm Calm -- 31.01 in1050.1 mb - 0.00 in0.0 mm 0.00 in0.0 mm
04:10 PM 33.8°F1.0°C 16.2°F-8.8°C 48% Calm Calm -- 31.01 in1050.1 mb - 0.00 in0.0 mm 0.00 in0.0 mm
04:00 PM 34.2°F1.2°C 16.1°F-8.8°C 47% Calm Calm -- 30.98 in1049.1 mb - 0.00 in0.0 mm 0.00 in0.0 mm
03:50 PM 34.9°F1.6°C 16.7°F-8.5°C 47% Calm Calm -- 30.98 in1049.1 mb - 0.00 in0.0 mm 0.00 in0.0 mm
03:40 PM 35.4°F1.9°C 17.2°F-8.2°C 47% Calm Calm -- 31.01 in1050.1 mb - 0.00 in0.0 mm 0.00 in0.0 mm
03:30 PM 35.2°F1.8°C 17.0°F-8.3°C 47% Calm Calm -- 31.01 in1050.1 mb - 0.00 in0.0 mm 0.00 in0.0 mm
03:20 PM 35.6°F2.0°C 17.3°F-8.2°C 47% Calm Calm -- 31.01 in1050.1 mb - 0.00 in0.0 mm 0.00 in0.0 mm
03:10 PM 36.4°F2.4°C 17.5°F-8.1°C 46% Calm Calm -- 31.01 in1050.1 mb - 0.00 in0.0 mm 0.00 in0.0 mm
03:00 PM 37.1°F2.8°C 18.2°F-7.7°C 46% Calm Calm -- 30.98 in1049.1 mb - 0.00 in0.0 mm 0.00 in0.0 mm
02:50 PM 37.1°F2.8°C 18.7°F-7.4°C 47% Calm Calm -- 30.98 in1049.1 mb - 0.00 in0.0 mm 0.00 in0.0 mm
02:40 PM 35.6°F2.0°C 17.3°F-8.2°C 47% Calm Calm -- 30.98 in1049.1 mb - 0.00 in0.0 mm 0.00 in0.0 mm
02:30 PM 35.6°F2.0°C 17.3°F-8.2°C 47% Calm Calm -- 30.98 in1049.1 mb - 0.00 in0.0 mm 0.00 in0.0 mm
02:20 PM 35.3°F1.8°C 17.0°F-8.3°C 47% Calm Calm -- 30.98 in1049.1 mb - 0.00 in0.0 mm 0.00 in0.0 mm
02:10 PM 34.7°F1.5°C 16.5°F-8.6°C 47% Calm Calm -- 30.98 in1049.1 mb - 0.00 in0.0 mm 0.00 in0.0 mm
02:00 PM 34.5°F1.4°C 16.3°F-8.7°C 47% Calm Calm -- 30.98 in1049.1 mb - 0.00 in0.0 mm 0.00 in0.0 mm
01:50 PM 34.9°F1.6°C 17.2°F-8.2°C 48% Calm Calm -- 30.98 in1049.1 mb - 0.00 in0.0 mm 0.00 in0.0 mm
01:40 PM 35.0°F1.7°C 17.3°F-8.2°C 48% Calm Calm -- 30.98 in1049.1 mb - 0.00 in0.0 mm 0.00 in0.0 mm
01:30 PM 35.1°F1.7°C 17.3°F-8.2°C 48% Calm Calm -- 31.01 in1050.1 mb - 0.00 in0.0 mm 0.00 in0.0 mm
01:20 PM 34.9°F1.6°C 17.2°F-8.2°C 48% Calm Calm -- 31.01 in1050.1 mb - 0.00 in0.0 mm 0.00 in0.0 mm
01:10 PM 34.7°F1.5°C 17.0°F-8.3°C 48% Calm Calm -- 30.98 in1049.1 mb - 0.00 in0.0 mm 0.00 in0.0 mm
01:00 PM 34.1°F1.2°C 16.5°F-8.6°C 48% Calm Calm -- 31.01 in1050.1 mb - 0.00 in0.0 mm 0.00 in0.0 mm
12:50 PM 33.6°F0.9°C 16.5°F-8.6°C 49% Calm Calm -- 31.01 in1050.1 mb - 0.00 in0.0 mm 0.00 in0.0 mm
12:40 PM 33.8°F1.0°C 16.6°F-8.6°C 49% Calm Calm -- 31.01 in1050.1 mb - 0.00 in0.0 mm 0.00 in0.0 mm
12:30 PM 33.4°F0.8°C 16.8°F-8.4°C 50% Calm Calm -- 31.01 in1050.1 mb - 0.00 in0.0 mm 0.00 in0.0 mm
12:20 PM 32.5°F0.3°C 15.9°F-8.9°C 50% Calm Calm -- 31.01 in1050.1 mb - 0.00 in0.0 mm 0.00 in0.0 mm
12:10 PM 31.8°F-0.1°C 15.3°F-9.3°C 50% Calm Calm -- 31.01 in1050.1 mb - 0.00 in0.0 mm 0.00 in0.0 mm
12:00 PM 31.3°F-0.4°C 15.3°F-9.3°C 51% Calm Calm -- 31.01 in1050.1 mb - 0.00 in0.0 mm 0.00 in0.0 mm
11:50 AM 31.1°F-0.5°C 15.1°F-9.4°C 51% Calm Calm -- 31.01 in1050.1 mb - 0.00 in0.0 mm 0.00 in0.0 mm
11:40 AM 30.7°F-0.7°C 15.1°F-9.4°C 52% Calm Calm -- 31.01 in1050.1 mb - 0.00 in0.0 mm 0.00 in0.0 mm
11:30 AM 30.0°F-1.1°C 14.5°F-9.7°C 52% Calm Calm -- 31.01 in1050.1 mb - 0.00 in0.0 mm 0.00 in0.0 mm
11:20 AM 29.8°F-1.2°C 14.7°F-9.6°C 53% Calm Calm -- 31.01 in1050.1 mb - 0.00 in0.0 mm 0.00 in0.0 mm
11:10 AM 29.5°F-1.4°C 14.4°F-9.8°C 53% Calm Calm -- 31.01 in1050.1 mb - 0.00 in0.0 mm 0.00 in0.0 mm
11:00 AM 29.3°F-1.5°C 14.3°F-9.8°C 53% Calm Calm -- 31.01 in1050.1 mb - 0.00 in0.0 mm 0.00 in0.0 mm
10:50 AM 29.1°F-1.6°C 14.1°F-9.9°C 53% Calm Calm -- 31.01 in1050.1 mb - 0.00 in0.0 mm 0.00 in0.0 mm
10:40 AM 28.9°F-1.7°C 14.4°F-9.8°C 54% Calm Calm -- 31.01 in1050.1 mb - 0.00 in0.0 mm 0.00 in0.0 mm
10:30 AM 28.6°F-1.9°C 14.0°F-10.0°C 54% Calm Calm -- 31.01 in1050.1 mb - 0.00 in0.0 mm 0.00 in0.0 mm
10:20 AM 28.4°F-2.0°C 13.9°F-10.1°C 54% Calm Calm -- 31.01 in1050.1 mb - 0.00 in0.0 mm 0.00 in0.0 mm
10:10 AM 28.0°F-2.2°C 13.9°F-10.1°C 55% Calm Calm -- 31.01 in1050.1 mb - 0.00 in0.0 mm 0.00 in0.0 mm
10:00 AM 27.7°F-2.4°C 13.2°F-10.4°C 54% Calm Calm -- 31.01 in1050.1 mb - 0.00 in0.0 mm 0.00 in0.0 mm
09:50 AM 27.1°F-2.7°C 12.7°F-10.7°C 54% Calm Calm -- 31.01 in1050.1 mb - 0.00 in0.0 mm 0.00 in0.0 mm
09:40 AM 27.0°F-2.8°C 13.3°F-10.4°C 56% Calm Calm -- 31.01 in1050.1 mb - 0.00 in0.0 mm 0.00 in0.0 mm
09:30 AM 26.5°F-3.1°C 12.9°F-10.6°C 56% Calm Calm -- 31.01 in1050.1 mb - 0.00 in0.0 mm 0.00 in0.0 mm
09:20 AM 26.2°F-3.2°C 12.2°F-11.0°C 55% Calm Calm -- 31.01 in1050.1 mb - 0.00 in0.0 mm 0.00 in0.0 mm
09:10 AM 26.1°F-3.3°C 12.5°F-10.8°C 56% Calm Calm -- 31.01 in1050.1 mb - 0.00 in0.0 mm 0.00 in0.0 mm
09:00 AM 25.9°F-3.4°C 12.3°F-10.9°C 56% Calm Calm -- 31.01 in1050.1 mb - 0.00 in0.0 mm 0.00 in0.0 mm
08:50 AM 25.7°F-3.5°C 12.6°F-10.8°C 57% Calm Calm -- 31.01 in1050.1 mb - 0.00 in0.0 mm 0.00 in0.0 mm
08:40 AM 25.3°F-3.7°C 12.6°F-10.8°C 58% Calm Calm -- 31.01 in1050.1 mb - 0.00 in0.0 mm 0.00 in0.0 mm
08:30 AM 24.5°F-4.2°C 12.6°F-10.8°C 60% Calm Calm -- 31.01 in1050.1 mb - 0.00 in0.0 mm 0.00 in0.0 mm
08:20 AM 23.9°F-4.5°C 12.0°F-11.1°C 60% Calm Calm -- 31.01 in1050.1 mb - 0.00 in0.0 mm 0.00 in0.0 mm
08:10 AM 22.7°F-5.2°C 11.6°F-11.3°C 62% Calm Calm -- 31.01 in1050.1 mb - 0.00 in0.0 mm 0.00 in0.0 mm
08:00 AM 21.2°F-6.0°C 10.2°F-12.1°C 62% Calm Calm -- 31.01 in1050.1 mb - 0.00 in0.0 mm 0.00 in0.0 mm
07:50 AM 20.6°F-6.3°C 10.0°F-12.2°C 63% Calm Calm -- 31.01 in1050.1 mb - 0.00 in0.0 mm 0.00 in0.0 mm
07:40 AM 19.8°F-6.8°C 8.8°F-12.9°C 62% Calm Calm -- 31.01 in1050.1 mb - 0.00 in0.0 mm 0.00 in0.0 mm
07:30 AM 18.4°F-7.6°C 7.5°F-13.6°C 62% Calm Calm -- 31.01 in1050.1 mb - 0.00 in0.0 mm 0.00 in0.0 mm
07:20 AM 17.8°F-7.9°C 6.6°F-14.1°C 61% Calm Calm -- 31.01 in1050.1 mb - 0.00 in0.0 mm 0.00 in0.0 mm
07:10 AM 19.1°F-7.2°C 8.2°F-13.2°C 62% Calm Calm -- 31.01 in1050.1 mb - 0.00 in0.0 mm 0.00 in0.0 mm
07:00 AM 18.0°F-7.8°C 7.2°F-13.8°C 62% Calm Calm -- 31.01 in1050.1 mb - 0.00 in0.0 mm 0.00 in0.0 mm
06:50 AM 15.5°F-9.2°C 4.8°F-15.1°C 62% Calm Calm -- 31.01 in1050.1 mb - 0.00 in0.0 mm 0.00 in0.0 mm
06:40 AM 14.7°F-9.6°C 4.0°F-15.6°C 62% Calm Calm -- 31.01 in1050.1 mb - 0.00 in0.0 mm 0.00 in0.0 mm
06:30 AM 14.5°F-9.7°C 3.9°F-15.6°C 62% Calm Calm -- 31.01 in1050.1 mb - 0.00 in0.0 mm 0.00 in0.0 mm
06:20 AM 14.9°F-9.5°C 3.9°F-15.6°C 61% Calm Calm -- 31.01 in1050.1 mb - 0.00 in0.0 mm 0.00 in0.0 mm
06:10 AM 15.1°F-9.4°C 4.0°F-15.6°C 61% Calm Calm -- 31.01 in1050.1 mb - 0.00 in0.0 mm 0.00 in0.0 mm
06:00 AM 14.9°F-9.5°C 3.9°F-15.6°C 61% Calm Calm -- 31.01 in1050.1 mb - 0.00 in0.0 mm 0.00 in0.0 mm
05:50 AM 14.7°F-9.6°C 3.7°F-15.7°C 61% Calm Calm -- 31.01 in1050.1 mb - 0.00 in0.0 mm 0.00 in0.0 mm
05:40 AM 15.1°F-9.4°C 4.0°F-15.6°C 61% Calm Calm -- 31.01 in1050.1 mb - 0.00 in0.0 mm 0.00 in0.0 mm
05:30 AM 15.1°F-9.4°C 4.0°F-15.6°C 61% Calm Calm -- 31.01 in1050.1 mb - 0.00 in0.0 mm 0.00 in0.0 mm
05:20 AM 15.4°F-9.2°C 4.4°F-15.3°C 61% Calm Calm -- 31.01 in1050.1 mb - 0.00 in0.0 mm 0.00 in0.0 mm
05:10 AM 15.1°F-9.4°C 4.0°F-15.6°C 61% Calm Calm -- 31.01 in1050.1 mb - 0.00 in0.0 mm 0.00 in0.0 mm
05:00 AM 15.4°F-9.2°C 4.4°F-15.3°C 61% Calm Calm -- 31.01 in1050.1 mb - 0.00 in0.0 mm 0.00 in0.0 mm
04:50 AM 15.4°F-9.2°C 4.4°F-15.3°C 61% Calm Calm -- 31.01 in1050.1 mb - 0.00 in0.0 mm 0.00 in0.0 mm
04:40 AM 15.6°F-9.1°C 4.5°F-15.3°C 61% Calm Calm -- 31.01 in1050.1 mb - 0.00 in0.0 mm 0.00 in0.0 mm
04:30 AM 15.8°F-9.0°C 4.7°F-15.2°C 61% Calm Calm -- 31.01 in1050.1 mb - 0.00 in0.0 mm 0.00 in0.0 mm
04:20 AM 15.4°F-9.2°C 4.4°F-15.3°C 61% Calm Calm -- 31.01 in1050.1 mb - 0.00 in0.0 mm 0.00 in0.0 mm
04:10 AM 15.4°F-9.2°C 4.4°F-15.3°C 61% Calm Calm -- 31.01 in1050.1 mb - 0.00 in0.0 mm 0.00 in0.0 mm
04:00 AM 16.0°F-8.9°C 4.9°F-15.1°C 61% Calm Calm -- 31.01 in1050.1 mb - 0.00 in0.0 mm 0.00 in0.0 mm
03:50 AM 16.2°F-8.8°C 5.1°F-14.9°C 61% Calm Calm -- 31.01 in1050.1 mb - 0.00 in0.0 mm 0.00 in0.0 mm
03:40 AM 16.2°F-8.8°C 5.1°F-14.9°C 61% Calm Calm -- 31.01 in1050.1 mb - 0.00 in0.0 mm 0.00 in0.0 mm
03:30 AM 16.0°F-8.9°C 4.9°F-15.1°C 61% Calm Calm -- 31.01 in1050.1 mb - 0.00 in0.0 mm 0.00 in0.0 mm
03:20 AM 16.0°F-8.9°C 4.9°F-15.1°C 61% Calm Calm -- 31.01 in1050.1 mb - 0.00 in0.0 mm 0.00 in0.0 mm
03:10 AM 16.2°F-8.8°C 4.8°F-15.1°C 60% Calm Calm -- 31.01 in1050.1 mb - 0.00 in0.0 mm 0.00 in0.0 mm
03:00 AM 16.3°F-8.7°C 4.9°F-15.1°C 60% Calm Calm -- 31.01 in1050.1 mb - 0.00 in0.0 mm 0.00 in0.0 mm
02:50 AM 16.3°F-8.7°C 4.5°F-15.3°C 59% Calm Calm -- 31.01 in1050.1 mb - 0.00 in0.0 mm 0.00 in0.0 mm
02:40 AM 16.5°F-8.6°C 4.7°F-15.2°C 59% Calm Calm -- 31.01 in1050.1 mb - 0.00 in0.0 mm 0.00 in0.0 mm
02:30 AM 16.7°F-8.5°C 4.8°F-15.1°C 59% Calm Calm -- 31.01 in1050.1 mb - 0.00 in0.0 mm 0.00 in0.0 mm
02:20 AM 16.9°F-8.4°C 5.0°F-15.0°C 59% Calm Calm -- 31.01 in1050.1 mb - 0.00 in0.0 mm 0.00 in0.0 mm
02:10 AM 17.1°F-8.3°C 5.2°F-14.9°C 59% Calm Calm -- 31.01 in1050.1 mb - 0.00 in0.0 mm 0.00 in0.0 mm
02:00 AM 17.1°F-8.3°C 5.2°F-14.9°C 59% Calm Calm -- 31.01 in1050.1 mb - 0.00 in0.0 mm 0.00 in0.0 mm
01:50 AM 17.1°F-8.3°C 4.8°F-15.1°C 58% Calm Calm -- 31.01 in1050.1 mb - 0.00 in0.0 mm 0.00 in0.0 mm
01:40 AM 17.4°F-8.1°C 5.1°F-14.9°C 58% Calm Calm -- 31.01 in1050.1 mb - 0.00 in0.0 mm 0.00 in0.0 mm
01:30 AM 17.6°F-8.0°C 5.3°F-14.8°C 58% Calm Calm -- 31.01 in1050.1 mb - 0.00 in0.0 mm 0.00 in0.0 mm
01:20 AM 17.4°F-8.1°C 5.1°F-14.9°C 58% Calm Calm -- 31.01 in1050.1 mb - 0.00 in0.0 mm 0.00 in0.0 mm
01:10 AM 17.5°F-8.1°C 4.8°F-15.1°C 57% Calm Calm -- 31.01 in1050.1 mb - 0.00 in0.0 mm 0.00 in0.0 mm
01:00 AM 17.6°F-8.0°C 4.9°F-15.1°C 57% Calm Calm -- 31.01 in1050.1 mb - 0.00 in0.0 mm 0.00 in0.0 mm
12:50 AM 18.1°F-7.7°C 5.4°F-14.8°C 57% Calm Calm -- 31.01 in1050.1 mb - 0.00 in0.0 mm 0.00 in0.0 mm
12:40 AM 18.1°F-7.7°C 5.4°F-14.8°C 57% Calm Calm -- 31.01 in1050.1 mb - 0.00 in0.0 mm 0.00 in0.0 mm
12:30 AM 18.3°F-7.6°C 5.2°F-14.9°C 56% Calm Calm -- 31.01 in1050.1 mb - 0.00 in0.0 mm 0.00 in0.0 mm
12:20 AM 18.7°F-7.4°C 5.6°F-14.7°C 56% Calm Calm -- 31.01 in1050.1 mb - 0.00 in0.0 mm 0.00 in0.0 mm
12:10 AM 18.7°F-7.4°C 5.6°F-14.7°C 56% Calm Calm -- 31.01 in1050.1 mb - 0.00 in0.0 mm 0.00 in0.0 mm
12:00 AM 18.7°F-7.4°C 5.6°F-14.7°C 56% Calm Calm -- 31.01 in1050.1 mb - 0.00 in0.0 mm 0.00 in0.0 mm